Time;durP1;ratioP1;P1;durP2;ratioP2;P2;SDS_P1;SDS_P2;PMS_P1;PMS_P2;Temp;Humidity;BMP_temperature;BMP_pressure;BME280_temperature;BME280_humidity;BME280_pressure;Samples;Min_cycle;Max_cycle;Signal;HPM_P1;HPM_P2
2023/05/22 00:01:42;;;;;;;7.20;5.00;;;;;;;10.58;66.88;97371.11;108797;1250;94708;-74
2023/05/22 00:04:12;;;;;;;6.90;4.90;;;;;;;10.52;67.14;97372.28;108918;1250;102285;-75
2023/05/22 00:06:43;;;;;;;6.30;4.70;;;;;;;10.50;67.34;97373.63;108805;1250;100489;-74
2023/05/22 00:09:12;;;;;;;9.00;5.30;;;;;;;10.50;67.36;97371.10;108829;1250;99938;-74
2023/05/22 00:11:40;;;;;;;7.30;5.00;;;;;;;10.47;67.36;97371.89;108901;1250;94196;-76
2023/05/22 00:14:08;;;;;;;11.80;6.10;;;;;;;10.42;67.50;97369.98;108885;1250;94679;-73
2023/05/22 00:16:36;;;;;;;11.20;4.80;;;;;;;10.41;67.65;97372.31;108925;1250;102370;-74
2023/05/22 00:19:05;;;;;;;9.00;5.20;;;;;;;10.39;67.59;97373.98;108755;1250;201919;-74
2023/05/22 00:21:36;;;;;;;11.10;5.70;;;;;;;10.36;67.52;97376.20;108640;1251;99814;-73
2023/05/22 00:24:04;;;;;;;11.20;5.30;;;;;;;10.34;67.66;97375.90;108846;1250;94562;-77
2023/05/22 00:26:32;;;;;;;10.30;5.20;;;;;;;10.33;67.68;97379.02;108767;1250;94681;-73
2023/05/22 00:29:00;;;;;;;8.60;5.30;;;;;;;10.31;67.74;97374.20;108936;1250;102333;-76
2023/05/22 00:31:28;;;;;;;6.80;4.60;;;;;;;10.30;67.68;97372.05;108888;1250;101392;-76
2023/05/22 00:33:56;;;;;;;10.30;5.60;;;;;;;10.29;67.79;97370.59;108884;1250;100175;-74
2023/05/22 00:36:25;;;;;;;7.50;5.10;;;;;;;10.26;67.60;97367.61;108902;1250;94177;-78
2023/05/22 00:38:53;;;;;;;9.80;5.40;;;;;;;10.19;67.68;97365.02;108728;1251;94334;-77
2023/05/22 00:41:21;;;;;;;10.60;5.50;;;;;;;10.16;67.78;97365.85;108843;1249;102406;-75
2023/05/22 00:43:50;;;;;;;10.70;4.70;;;;;;;10.10;67.66;97368.85;108967;1250;101168;-76
2023/05/22 00:46:20;;;;;;;9.10;5.20;;;;;;;10.04;67.81;97365.52;108904;1250;100034;-74
2023/05/22 00:48:48;;;;;;;6.70;5.30;;;;;;;9.99;67.97;97366.92;108805;1250;94539;-73
2023/05/22 00:51:16;;;;;;;7.10;4.20;;;;;;;9.90;67.97;97367.63;108939;1250;95658;-77
2023/05/22 00:53:46;;;;;;;7.10;4.90;;;;;;;9.83;68.07;97368.40;108912;1250;102161;-74
2023/05/22 00:56:15;;;;;;;7.50;4.90;;;;;;;9.82;68.19;97371.05;108946;1250;101086;-74
2023/05/22 00:58:43;;;;;;;8.80;4.60;;;;;;;9.76;68.14;97368.04;108858;1250;99950;-77
2023/05/22 01:01:12;;;;;;;6.90;4.40;;;;;;;9.72;68.18;97370.90;108808;1250;94371;-73
2023/05/22 01:03:43;;;;;;;8.70;5.10;;;;;;;9.70;68.17;97371.55;108933;1250;96339;-76
2023/05/22 01:06:16;;;;;;;10.30;5.20;;;;;;;9.66;68.26;97371.22;108926;1250;102690;-75
2023/05/22 01:08:44;;;;;;;10.30;4.80;;;;;;;9.62;68.30;97368.94;108671;1250;100494;-75
2023/05/22 01:11:33;;;;;;;9.70;5.40;;;;;;;9.59;68.27;97368.98;108843;1250;100584;-75
2023/05/22 01:14:09;;;;;;;8.10;4.70;;;;;;;9.54;68.29;97364.99;108856;1250;94275;-74
2023/05/22 01:16:45;;;;;;;6.60;4.30;;;;;;;9.52;68.30;97365.29;108912;1250;94675;-74
2023/05/22 01:19:25;;;;;;;8.20;4.70;;;;;;;9.51;68.28;97365.45;108928;1250;102098;-74
2023/05/22 01:22:12;;;;;;;10.10;4.30;;;;;;;9.46;68.24;97365.09;108960;1249;101608;-74
2023/05/22 01:24:59;;;;;;;6.50;4.50;;;;;;;9.41;68.20;97362.56;108699;1250;99886;-74
2023/05/22 01:27:59;;;;;;;8.70;4.40;;;;;;;9.36;68.27;97364.91;108668;1250;94320;-73
2023/05/22 01:30:48;;;;;;;11.80;4.40;;;;;;;9.31;68.44;97364.55;108378;1257;95347;-74
2023/05/22 01:33:18;;;;;;;7.70;4.70;;;;;;;9.27;68.55;97365.08;108345;1257;101009;-75
2023/05/22 01:35:52;;;;;;;7.00;4.70;;;;;;;9.23;68.61;97366.63;108348;1257;101594;-78
2023/05/22 01:38:21;;;;;;;9.00;4.40;;;;;;;9.21;68.68;97364.67;108304;1257;98739;-76
2023/05/22 01:40:50;;;;;;;7.70;4.20;;;;;;;9.19;68.79;97362.97;108305;1257;94647;-75
2023/05/22 01:43:18;;;;;;;7.60;4.40;;;;;;;9.16;68.56;97363.80;108358;1256;94470;-75
2023/05/22 01:45:46;;;;;;;8.40;4.50;;;;;;;9.12;68.56;97365.61;108288;1257;102065;-77
2023/05/22 01:48:15;;;;;;;8.40;4.50;;;;;;;9.09;68.69;97368.20;108342;1256;101395;-78
2023/05/22 01:50:44;;;;;;;7.10;4.20;;;;;;;9.06;68.70;97363.15;108306;1257;100144;-74
2023/05/22 01:53:27;;;;;;;7.30;4.50;;;;;;;8.99;68.71;97358.58;108309;1256;94278;-76
2023/05/22 01:55:59;;;;;;;7.60;4.00;;;;;;;8.96;68.78;97360.46;108348;1257;94707;-75
2023/05/22 01:58:48;;;;;;;7.40;4.90;;;;;;;8.93;68.84;97359.10;108187;1256;101627;-74
2023/05/22 02:01:19;;;;;;;6.60;4.40;;;;;;;8.86;68.85;97360.15;108359;1256;101839;-74
2023/05/22 02:03:55;;;;;;;8.00;4.30;;;;;;;8.82;68.93;97360.64;108341;1256;99988;-76
2023/05/22 02:06:27;;;;;;;8.30;4.50;;;;;;;8.78;69.02;97361.45;108545;1250;94697;-74
2023/05/22 02:08:55;;;;;;;;;;;;;;;8.75;69.15;97361.55;108938;1251;94564;-73
2023/05/22 02:11:27;;;;;;;8.40;4.00;;;;;;;8.68;69.18;97364.23;108942;1250;101307;-77
2023/05/22 02:13:56;;;;;;;6.90;4.00;;;;;;;8.63;69.15;97367.55;108936;1250;101559;-73
2023/05/22 02:16:27;;;;;;;8.60;4.70;;;;;;;8.58;69.23;97365.86;108896;1250;99914;-74
2023/05/22 02:19:04;;;;;;;7.50;4.10;;;;;;;8.53;69.21;97363.48;108924;1250;94494;-73
2023/05/22 02:21:34;;;;;;;5.50;3.90;;;;;;;8.47;69.23;97363.20;108934;1250;94374;-75
2023/05/22 02:24:03;;;;;;;9.90;4.60;;;;;;;8.44;69.34;97363.48;108923;1250;102189;-74
2023/05/22 02:26:31;;;;;;;7.60;4.10;;;;;;;8.41;69.37;97363.88;108918;1250;101339;-75
2023/05/22 02:28:59;;;;;;;8.00;4.60;;;;;;;8.38;69.38;97359.25;108691;1251;100274;-74
2023/05/22 02:31:28;;;;;;;9.10;4.30;;;;;;;8.36;69.38;97355.98;108875;1250;94649;-73
2023/05/22 02:33:56;;;;;;;8.00;4.90;;;;;;;8.34;69.59;97356.37;108974;1250;94488;-76
2023/05/22 02:36:25;;;;;;;6.40;4.90;;;;;;;8.28;69.63;97355.55;108902;1250;102340;-75
2023/05/22 02:38:54;;;;;;;7.30;4.40;;;;;;;8.25;69.64;97357.29;108926;1250;101489;-77
2023/05/22 02:41:23;;;;;;;6.60;4.60;;;;;;;8.22;69.67;97358.52;108898;1250;99791;-74
2023/05/22 02:43:51;;;;;;;7.40;4.10;;;;;;;8.20;69.75;97359.14;108888;1250;94326;-73
2023/05/22 02:46:19;;;;;;;8.90;4.70;;;;;;;8.19;69.65;97355.16;108941;1250;94443;-74
2023/05/22 02:48:47;;;;;;;8.80;5.50;;;;;;;8.17;69.69;97349.89;108930;1254;102156;-75
2023/05/22 02:51:15;;;;;;;10.00;5.80;;;;;;;8.14;69.72;97353.09;108762;1250;101093;-73
2023/05/22 02:53:43;;;;;;;12.50;7.60;;;;;;;8.11;69.82;97354.55;108926;1250;100295;-73
2023/05/22 02:56:11;;;;;;;16.10;7.80;;;;;;;8.10;69.96;97352.64;108963;1250;94175;-77
2023/05/22 02:58:40;;;;;;;11.80;8.10;;;;;;;8.04;69.97;97349.13;108733;1251;95072;-75
2023/05/22 03:01:09;;;;;;;14.20;9.30;;;;;;;8.00;69.86;97349.80;108945;1250;102300;-73
2023/05/22 03:03:37;;;;;;;15.20;8.40;;;;;;;7.96;69.93;97354.02;108992;1250;101162;-73
2023/05/22 03:06:07;;;;;;;15.40;9.70;;;;;;;7.95;69.96;97351.32;108876;1250;99831;-74
2023/05/22 03:08:40;;;;;;;9.60;6.00;;;;;;;7.89;69.91;97348.52;108778;1250;94261;-74
2023/05/22 03:11:08;;;;;;;10.00;6.10;;;;;;;7.80;69.82;97349.06;108778;1250;94717;-78
2023/05/22 03:13:36;;;;;;;12.50;6.10;;;;;;;7.78;69.90;97348.90;108968;1250;102312;-73
2023/05/22 03:16:05;;;;;;;10.90;5.80;;;;;;;7.78;70.11;97350.44;108922;1250;101580;-74
2023/05/22 03:18:33;;;;;;;13.20;6.70;;;;;;;7.80;70.34;97350.34;108864;1251;99924;-74
2023/05/22 03:21:01;;;;;;;11.10;6.30;;;;;;;7.83;70.35;97349.65;108857;1250;94216;-74
2023/05/22 03:23:29;;;;;;;10.20;5.50;;;;;;;7.84;70.38;97346.44;108983;1250;95338;-76
2023/05/22 03:25:57;;;;;;;12.30;5.40;;;;;;;7.85;70.28;97346.10;108969;1250;102234;-73
2023/05/22 03:28:25;;;;;;;11.00;5.40;;;;;;;7.83;70.23;97348.55;108694;1257;101089;-73
2023/05/22 03:30:53;;;;;;;8.60;5.70;;;;;;;7.81;70.30;97348.02;108876;1250;100143;-73
2023/05/22 03:33:21;;;;;;;13.00;5.60;;;;;;;7.79;70.31;97346.76;108947;1250;94317;-77
2023/05/22 03:35:49;;;;;;;12.10;5.90;;;;;;;7.76;70.35;97346.45;108906;1250;94220;-74
2023/05/22 03:38:17;;;;;;;8.20;4.70;;;;;;;7.74;70.56;97350.72;108956;1250;101862;-74
2023/05/22 03:40:45;;;;;;;6.50;5.00;;;;;;;7.74;70.62;97350.64;108771;1250;101298;-72
2023/05/22 03:43:13;;;;;;;7.70;4.80;;;;;;;7.74;70.72;97349.28;108912;1250;100614;-74
2023/05/22 03:45:42;;;;;;;9.50;5.40;;;;;;;7.77;70.87;97346.76;108872;1250;94450;-72
2023/05/22 03:48:11;;;;;;;11.40;5.10;;;;;;;7.79;70.93;97349.20;108740;1251;94585;-72
2023/05/22 03:50:39;;;;;;;13.40;5.20;;;;;;;7.81;71.02;97345.26;108773;1253;102274;-72
2023/05/22 03:53:07;;;;;;;9.60;5.10;;;;;;;7.83;71.03;97345.85;108978;1250;100986;-72
2023/05/22 03:55:35;;;;;;;13.70;5.00;;;;;;;7.86;71.02;97349.79;108913;1250;99552;-72
2023/05/22 03:58:03;;;;;;;9.80;5.30;;;;;;;7.89;71.05;97346.38;108894;1250;94182;-74
2023/05/22 04:00:32;;;;;;;9.80;5.10;;;;;;;7.92;71.17;97345.25;108817;1250;94648;-72
2023/05/22 04:03:00;;;;;;;8.20;4.40;;;;;;;7.95;71.11;97344.09;108920;1250;102496;-72
2023/05/22 04:05:30;;;;;;;9.00;4.20;;;;;;;7.98;71.22;97344.16;108689;1251;101458;-72
2023/05/22 04:07:58;;;;;;;9.30;4.80;;;;;;;8.00;71.41;97342.27;108905;1250;100166;-75
2023/05/22 04:10:26;;;;;;;9.70;5.30;;;;;;;8.03;71.44;97347.27;108944;1250;94163;-72
2023/05/22 04:12:54;;;;;;;10.50;5.40;;;;;;;8.07;71.42;97349.54;108986;1250;94544;-74
2023/05/22 04:15:22;;;;;;;6.70;5.20;;;;;;;8.13;71.50;97350.02;108983;1250;102379;-74
2023/05/22 04:17:51;;;;;;;10.70;6.10;;;;;;;8.18;71.62;97344.92;108938;1250;101500;-72
2023/05/22 04:20:21;;;;;;;14.20;6.70;;;;;;;8.21;71.49;97344.61;108919;1250;98927;-72
2023/05/22 04:22:49;;;;;;;12.10;6.90;;;;;;;8.25;71.56;97340.88;108932;1250;94199;-71
2023/05/22 04:25:17;;;;;;;14.40;9.10;;;;;;;8.28;71.56;97338.70;108978;1250;94538;-72
2023/05/22 04:27:46;;;;;;;14.80;9.20;;;;;;;8.34;71.72;97334.48;108663;1253;101893;-71
2023/05/22 04:30:15;;;;;;;19.50;9.30;;;;;;;8.40;71.76;97336.27;108939;1250;101516;-72
2023/05/22 04:32:44;;;;;;;12.80;9.10;;;;;;;8.46;71.87;97334.02;108918;1250;100009;-75
2023/05/22 04:35:12;;;;;;;12.50;7.40;;;;;;;8.51;71.94;97333.05;108938;1250;94162;-72
2023/05/22 04:37:41;;;;;;;15.90;7.50;;;;;;;8.59;71.78;97329.52;108979;1250;94355;-74
2023/05/22 04:40:10;;;;;;;13.50;7.40;;;;;;;8.66;71.71;97329.27;108941;1250;102238;-72
2023/05/22 04:42:39;;;;;;;14.70;7.20;;;;;;;8.73;71.68;97326.73;108967;1249;101259;-72
2023/05/22 04:45:07;;;;;;;15.00;8.50;;;;;;;8.80;71.84;97327.58;108928;1250;100160;-72
2023/05/22 04:47:37;;;;;;;17.20;8.40;;;;;;;8.87;71.81;97328.30;108920;1250;94257;-72
2023/05/22 04:50:05;;;;;;;12.40;8.40;;;;;;;8.93;71.85;97326.67;108943;1250;94596;-74
2023/05/22 04:52:33;;;;;;;14.10;7.90;;;;;;;8.98;71.98;97324.61;108813;1251;101827;-72
2023/05/22 04:55:02;;;;;;;11.90;6.90;;;;;;;9.04;71.93;97324.46;108920;1250;101299;-72
2023/05/22 04:57:30;;;;;;;12.30;7.00;;;;;;;9.11;71.98;97326.66;108797;1250;100092;-73
2023/05/22 04:59:58;;;;;;;9.60;6.50;;;;;;;9.17;71.93;97324.95;108970;1251;94261;-72
2023/05/22 05:02:26;;;;;;;10.50;6.50;;;;;;;9.24;71.78;97324.37;108810;1250;94496;-75
2023/05/22 05:04:54;;;;;;;10.20;5.20;;;;;;;9.31;71.88;97320.44;108971;1250;102033;-73
2023/05/22 05:07:23;;;;;;;13.30;6.40;;;;;;;9.40;71.96;97312.58;108923;1250;101293;-72
2023/05/22 05:09:52;;;;;;;12.80;5.40;;;;;;;9.49;71.98;97311.09;108875;1250;100392;-72
2023/05/22 05:12:20;;;;;;;10.60;5.60;;;;;;;9.56;71.92;97307.15;108976;1254;94430;-72
2023/05/22 05:14:48;;;;;;;7.00;5.80;;;;;;;9.65;71.86;97310.67;108964;1250;94734;-72
2023/05/22 05:17:16;;;;;;;9.40;5.40;;;;;;;9.74;71.85;97312.62;108947;1250;102165;-73
2023/05/22 05:19:44;;;;;;;11.70;5.40;;;;;;;9.84;71.92;97310.67;108908;1250;101398;-72
2023/05/22 05:22:12;;;;;;;7.40;5.40;;;;;;;9.92;71.73;97309.29;108908;1250;100049;-72
2023/05/22 05:24:40;;;;;;;9.00;5.10;;;;;;;10.00;71.55;97307.95;108664;1250;94659;-72
2023/05/22 05:27:08;;;;;;;9.60;5.10;;;;;;;10.09;71.51;97306.70;108952;1250;94724;-73
2023/05/22 05:29:36;;;;;;;12.60;5.80;;;;;;;10.19;71.29;97306.70;108978;1250;109098;-72
2023/05/22 05:32:04;;;;;;;9.00;5.10;;;;;;;10.27;71.41;97306.55;108969;1250;101429;-75
2023/05/22 05:34:32;;;;;;;6.50;4.40;;;;;;;10.36;71.27;97304.46;108690;1250;99988;-75
2023/05/22 05:37:02;;;;;;;11.00;5.20;;;;;;;10.45;70.97;97303.02;108878;1250;94401;-72
2023/05/22 05:39:30;;;;;;;13.40;5.10;;;;;;;10.56;70.81;97299.98;109030;1250;94889;-73
2023/05/22 05:41:58;;;;;;;7.50;4.60;;;;;;;10.66;70.54;97297.53;108968;1250;102277;-72
2023/05/22 05:44:27;;;;;;;11.60;4.50;;;;;;;10.77;70.25;97295.45;108894;1250;100283;-73
2023/05/22 05:46:55;;;;;;;7.20;4.30;;;;;;;10.88;69.84;97292.81;108904;1250;108202;-72
2023/05/22 05:49:23;;;;;;;13.30;4.90;;;;;;;10.99;69.54;97294.75;108929;1250;94524;-75
2023/05/22 05:51:51;;;;;;;6.90;4.50;;;;;;;11.10;69.44;97292.85;108941;1250;94746;-72
2023/05/22 05:54:19;;;;;;;7.80;4.50;;;;;;;11.23;69.31;97291.10;108984;1250;101787;-72
2023/05/22 05:56:47;;;;;;;10.60;4.70;;;;;;;11.35;69.17;97287.95;108941;1250;101025;-73
2023/05/22 05:59:15;;;;;;;6.60;4.90;;;;;;;11.47;68.98;97285.48;108893;1250;98998;-72
2023/05/22 06:01:47;;;;;;;8.60;4.30;;;;;;;11.60;69.06;97282.39;108968;1250;94264;-71
2023/05/22 06:04:15;;;;;;;9.70;4.50;;;;;;;11.72;68.82;97280.96;108676;1250;94654;-72
2023/05/22 06:06:43;;;;;;;8.80;4.70;;;;;;;11.84;68.75;97283.54;108956;1250;102125;-72
2023/05/22 06:09:11;;;;;;;6.60;4.70;;;;;;;11.95;68.38;97281.23;108935;1249;101289;-73
2023/05/22 06:11:39;;;;;;;8.10;4.90;;;;;;;12.07;68.21;97278.27;108893;1250;100129;-72
2023/05/22 06:14:08;;;;;;;7.90;4.60;;;;;;;12.19;68.30;97280.07;108797;1251;95758;-72
2023/05/22 06:16:36;;;;;;;14.60;4.90;;;;;;;12.32;68.23;97278.27;108908;1250;94636;-72
2023/05/22 06:19:05;;;;;;;6.80;4.70;;;;;;;12.45;67.72;97277.06;108940;1250;100934;-72
2023/05/22 06:21:33;;;;;;;7.80;4.40;;;;;;;12.58;67.08;97273.50;108842;1251;110331;-77
2023/05/22 06:24:01;;;;;;;8.40;4.70;;;;;;;12.69;66.86;97269.70;108845;1250;99353;-74
2023/05/22 06:26:30;;;;;;;8.00;4.60;;;;;;;12.82;66.82;97267.23;108922;1250;94283;-74
2023/05/22 06:28:58;;;;;;;5.50;4.30;;;;;;;12.94;66.61;97259.86;108934;1254;94699;-74
2023/05/22 06:31:26;;;;;;;8.40;4.40;;;;;;;13.07;66.27;97259.92;108861;1254;101228;-75
2023/05/22 06:33:54;;;;;;;10.20;4.30;;;;;;;13.18;66.14;97259.13;108965;1251;101221;-74
2023/05/22 06:36:23;;;;;;;11.30;5.10;;;;;;;13.29;65.82;97260.63;108786;1250;99072;-74
2023/05/22 06:38:53;;;;;;;7.90;4.60;;;;;;;13.42;65.74;97262.67;108903;1250;94529;-74
2023/05/22 06:41:21;;;;;;;11.20;5.00;;;;;;;13.56;65.65;97257.78;108949;1250;95792;-73
2023/05/22 06:43:49;;;;;;;12.10;4.70;;;;;;;13.73;65.76;97254.92;108891;1250;102073;-74
2023/05/22 06:46:17;;;;;;;7.50;4.40;;;;;;;13.86;65.00;97256.31;108924;1250;101616;-76
2023/05/22 06:48:45;;;;;;;7.20;4.00;;;;;;;14.00;64.60;97251.38;108637;1252;100042;-74
2023/05/22 06:51:14;;;;;;;8.10;4.70;;;;;;;14.13;64.31;97250.81;108646;1251;94562;-74
2023/05/22 06:53:42;;;;;;;6.90;4.00;;;;;;;14.26;64.22;97247.73;108675;1253;94482;-73
2023/05/22 06:56:10;;;;;;;11.10;4.30;;;;;;;14.45;64.30;97251.91;108878;1251;102729;-74
2023/05/22 06:58:39;;;;;;;15.00;3.80;;;;;;;14.66;63.64;97246.05;108917;1250;101139;-75
2023/05/22 07:01:07;;;;;;;5.40;2.80;;;;;;;14.91;63.02;97248.55;108917;1250;100098;-74
2023/05/22 07:03:36;;;;;;;3.10;2.80;;;;;;;15.13;61.63;97244.63;108794;1250;94229;-74
2023/05/22 07:06:04;;;;;;;8.00;3.20;;;;;;;15.36;60.76;97245.41;108779;1250;94736;-77
2023/05/22 07:08:33;;;;;;;7.50;3.20;;;;;;;15.58;59.49;97242.65;108968;1251;102140;-74
2023/05/22 07:11:05;;;;;;;7.30;3.40;;;;;;;15.80;59.24;97235.29;108838;1250;100415;-79
2023/05/22 07:13:33;;;;;;;6.40;3.70;;;;;;;16.00;58.92;97230.80;108921;1250;99912;-76
2023/05/22 07:16:01;;;;;;;4.90;3.00;;;;;;;16.20;58.23;97230.38;108879;1250;94186;-74
2023/05/22 07:18:30;;;;;;;5.20;3.10;;;;;;;16.44;57.67;97228.85;108918;1250;94299;-76
2023/05/22 07:20:58;;;;;;;7.70;3.40;;;;;;;16.65;57.03;97229.41;108820;1250;102238;-74
2023/05/22 07:23:26;;;;;;;5.80;2.90;;;;;;;16.82;56.31;97231.85;108939;1250;101255;-74
2023/05/22 07:25:55;;;;;;;6.70;3.20;;;;;;;17.01;55.86;97228.17;108906;1250;100131;-74
2023/05/22 07:28:23;;;;;;;5.80;3.10;;;;;;;17.17;55.07;97231.36;108791;1250;95212;-74
2023/05/22 07:30:51;;;;;;;6.00;3.30;;;;;;;17.34;54.61;97231.30;108913;1254;94565;-74
2023/05/22 07:33:19;;;;;;;4.90;2.80;;;;;;;17.48;54.14;97230.07;108884;1250;102080;-74
2023/05/22 07:35:47;;;;;;;3.30;2.80;;;;;;;17.64;53.65;97228.90;108914;1250;100518;-78
2023/05/22 07:38:15;;;;;;;5.40;3.30;;;;;;;17.82;53.62;97233.66;108674;1250;100714;-74
2023/05/22 07:40:43;;;;;;;7.00;3.20;;;;;;;18.03;53.27;97233.03;108943;1250;94241;-75
2023/05/22 07:43:14;;;;;;;5.20;3.00;;;;;;;18.31;51.87;97228.08;108954;1250;94324;-78
2023/05/22 07:45:42;;;;;;;4.60;3.10;;;;;;;18.71;51.65;97224.35;108901;1251;102469;-74
2023/05/22 07:48:11;;;;;;;3.50;3.10;;;;;;;19.20;51.16;97225.65;108959;1251;101299;-74
2023/05/22 07:50:43;;;;;;;6.00;3.00;;;;;;;19.70;50.37;97226.33;108811;1256;99544;-74
2023/05/22 07:53:11;;;;;;;7.10;3.10;;;;;;;20.24;49.18;97224.92;108930;1250;94409;-74
2023/05/22 07:55:40;;;;;;;8.30;3.20;;;;;;;20.78;48.04;97221.63;108832;1250;94270;-74
2023/05/22 07:58:09;;;;;;;5.40;3.30;;;;;;;21.30;47.60;97221.33;108843;1252;103492;-77
2023/05/22 08:00:37;;;;;;;9.60;3.20;;;;;;;21.76;46.88;97219.23;108949;1250;100306;-74
2023/05/22 08:03:06;;;;;;;8.40;3.20;;;;;;;22.16;46.22;97215.44;108922;1250;99850;-74
2023/05/22 08:05:35;;;;;;;4.60;3.40;;;;;;;22.56;45.60;97215.55;108707;1251;94593;-76
2023/05/22 08:08:03;;;;;;;6.30;3.00;;;;;;;22.95;44.31;97216.48;108798;1254;95787;-74
2023/05/22 08:10:31;;;;;;;4.80;3.00;;;;;;;23.32;43.38;97216.80;108475;1250;102102;-75
2023/05/22 08:13:04;;;;;;;4.80;3.20;;;;;;;23.63;42.70;97219.50;108883;1251;101262;-75
2023/05/22 08:15:34;;;;;;;5.80;3.00;;;;;;;23.89;42.09;97219.52;108906;1251;99856;-77
2023/05/22 08:18:02;;;;;;;3.60;3.30;;;;;;;24.18;41.71;97218.86;108926;1250;94137;-78
2023/05/22 08:20:30;;;;;;;3.50;2.70;;;;;;;24.52;40.47;97215.05;108671;1252;94612;-78
2023/05/22 08:22:58;;;;;;;3.70;2.90;;;;;;;24.75;39.89;97216.40;108969;1250;102201;-75
2023/05/22 08:25:26;;;;;;;5.10;2.70;;;;;;;24.97;39.22;97213.54;108885;1251;109102;-76
2023/05/22 08:27:54;;;;;;;4.90;3.10;;;;;;;25.19;38.63;97215.28;108884;1250;99465;-72
2023/05/22 08:30:22;;;;;;;4.90;3.20;;;;;;;25.49;38.86;97215.33;108889;1250;94262;-73
2023/05/22 08:32:50;;;;;;;6.00;2.90;;;;;;;25.78;38.26;97215.02;108963;1250;94371;-72
2023/05/22 08:35:19;;;;;;;8.80;3.00;;;;;;;26.11;37.88;97211.27;108893;1251;102140;-73
2023/05/22 08:37:47;;;;;;;5.10;2.60;;;;;;;26.49;37.31;97205.72;108874;1251;101685;-74
2023/05/22 08:40:15;;;;;;;5.20;3.10;;;;;;;26.80;36.96;97207.75;108910;1254;100050;-75
2023/05/22 08:42:43;;;;;;;3.90;3.00;;;;;;;27.06;35.84;97209.41;108869;1251;94241;-73
2023/05/22 08:45:14;;;;;;;5.70;3.10;;;;;;;27.22;35.50;97211.52;109000;1250;94584;-76
2023/05/22 08:47:44;;;;;;;6.40;3.00;;;;;;;27.46;35.22;97213.23;108948;1250;101762;-75
2023/05/22 08:50:15;;;;;;;4.00;2.70;;;;;;;27.72;35.09;97214.95;108707;1250;110861;-74
2023/05/22 08:52:50;;;;;;;5.30;3.10;;;;;;;27.89;34.01;97212.44;108663;1250;108100;-73
2023/05/22 08:55:20;;;;;;;6.70;3.10;;;;;;;28.07;33.90;97218.52;108812;1250;94473;-73
2023/05/22 08:57:49;;;;;;;6.70;3.20;;;;;;;28.30;33.11;97212.16;108895;1251;94387;-77
2023/05/22 09:00:20;;;;;;;3.60;3.10;;;;;;;28.42;32.74;97207.27;108927;1251;102364;-74
2023/05/22 09:02:49;;;;;;;7.60;3.30;;;;;;;28.60;33.18;97205.02;108940;1251;101038;-73
2023/05/22 09:05:17;;;;;;;4.50;3.30;;;;;;;28.86;32.49;97203.22;108792;1250;99981;-72
2023/05/22 09:07:47;;;;;;;3.20;2.90;;;;;;;29.11;32.26;97201.27;108892;1251;94291;-75
2023/05/22 09:10:15;;;;;;;3.70;3.30;;;;;;;29.30;32.22;97204.17;108818;1250;94280;-73
2023/05/22 09:13:06;;;;;;;5.10;3.00;;;;;;;29.44;32.27;97198.73;108959;1250;101966;-74
2023/05/22 09:15:36;;;;;;;4.40;3.10;;;;;;;29.57;31.03;97194.39;108909;1251;101261;-73
2023/05/22 09:18:05;;;;;;;5.00;3.20;;;;;;;29.71;31.43;97197.90;108603;1251;100394;-73
2023/05/22 09:20:38;;;;;;;7.70;3.60;;;;;;;29.85;31.06;97195.00;108725;1250;94288;-72
2023/05/22 09:23:18;;;;;;;7.50;2.70;;;;;;;29.95;31.16;97191.48;108829;1250;94286;-73
2023/05/22 09:25:47;;;;;;;3.90;2.90;;;;;;;30.09;30.92;97190.89;108862;1250;101958;-73
2023/05/22 09:28:15;;;;;;;5.10;3.30;;;;;;;30.18;30.57;97189.79;108716;1251;101342;-74
2023/05/22 09:30:43;;;;;;;6.90;3.30;;;;;;;30.14;29.59;97188.45;108918;1251;100084;-73
2023/05/22 09:33:13;;;;;;;4.80;2.70;;;;;;;30.08;29.72;97185.63;108936;1251;94143;-75
2023/05/22 09:35:42;;;;;;;4.00;3.40;;;;;;;30.07;29.50;97181.14;108941;1250;94223;-76
2023/05/22 09:38:11;;;;;;;12.20;3.40;;;;;;;30.06;29.37;97179.11;108938;1251;101836;-76
2023/05/22 09:40:40;;;;;;;4.70;3.40;;;;;;;30.06;29.47;97176.56;108811;1255;100567;-74
2023/05/22 09:43:12;;;;;;;6.20;3.00;;;;;;;29.98;28.77;97173.90;108878;1250;100020;-75
2023/05/22 09:45:40;;;;;;;5.10;3.10;;;;;;;29.92;28.89;97173.60;108820;1251;94269;-75
2023/05/22 09:48:11;;;;;;;4.50;3.40;;;;;;;29.94;29.30;97173.41;108878;1251;94288;-73
2023/05/22 09:50:40;;;;;;;7.00;3.10;;;;;;;29.92;28.85;97172.14;108872;1250;102012;-73
2023/05/22 09:53:10;;;;;;;3.70;3.30;;;;;;;29.59;28.39;97171.08;108922;1251;101248;-70
2023/05/22 09:55:39;;;;;;;5.20;2.90;;;;;;;29.17;28.74;97168.88;108934;1251;99796;-74
2023/05/22 09:58:11;;;;;;;5.80;3.00;;;;;;;28.84;28.88;97169.40;108661;1251;94557;-73
2023/05/22 10:00:40;;;;;;;3.80;2.90;;;;;;;28.62;29.19;97165.11;108621;1251;95111;-73
2023/05/22 10:03:11;;;;;;;5.30;3.00;;;;;;;28.50;29.21;97165.27;108964;1250;102130;-72
2023/05/22 10:05:46;;;;;;;5.30;2.90;;;;;;;28.49;29.44;97162.20;108804;1251;101356;-73
2023/05/22 10:08:21;;;;;;;7.10;3.40;;;;;;;28.58;29.00;97157.43;108859;1251;99493;-72
2023/05/22 10:10:51;;;;;;;4.70;3.20;;;;;;;28.68;29.35;97155.77;108864;1251;94222;-73
2023/05/22 10:13:21;;;;;;;5.40;3.00;;;;;;;28.79;29.81;97154.89;108934;1250;94231;-73
2023/05/22 10:15:49;;;;;;;5.80;3.20;;;;;;;28.91;29.32;97155.39;108933;1251;101999;-75
2023/05/22 10:18:18;;;;;;;3.80;3.00;;;;;;;29.04;29.53;97150.98;108825;1251;109836;-72
2023/05/22 10:20:47;;;;;;;3.10;2.70;;;;;;;29.14;29.40;97145.02;108891;1251;100150;-73
2023/05/22 10:23:15;;;;;;;5.60;2.90;;;;;;;29.25;28.62;97145.67;108870;1250;94492;-73
2023/05/22 10:25:45;;;;;;;9.90;3.10;;;;;;;29.29;28.97;97149.66;108867;1251;94374;-76
2023/05/22 10:28:33;;;;;;;5.00;2.80;;;;;;;29.38;28.65;97150.66;108909;1251;102451;-73
2023/05/22 10:31:09;;;;;;;7.70;3.00;;;;;;;29.43;28.84;97150.63;108902;1250;101278;-75
2023/05/22 10:33:44;;;;;;;5.00;2.50;;;;;;;29.46;28.53;97147.86;108842;1250;99979;-74
2023/05/22 10:36:26;;;;;;;4.60;3.30;;;;;;;29.43;27.78;97144.10;108909;1251;94541;-74
2023/05/22 10:38:57;;;;;;;;;;;;;;;29.42;27.47;97143.61;108464;1251;94680;-73
2023/05/22 10:41:26;;;;;;;4.90;2.80;;;;;;;29.36;27.77;97146.36;108830;1251;102147;-74
2023/05/22 10:43:56;;;;;;;7.30;3.10;;;;;;;29.23;27.53;97142.59;108829;1250;102016;-76
2023/05/22 10:46:25;;;;;;;2.90;2.70;;;;;;;29.28;27.97;97143.42;108835;1251;99893;-73
2023/05/22 10:48:55;;;;;;;3.10;2.80;;;;;;;29.35;27.92;97145.52;108880;1251;94219;-74
2023/05/22 10:51:24;;;;;;;7.10;3.00;;;;;;;29.39;28.39;97141.08;108902;1250;95138;-76
2023/05/22 10:53:59;;;;;;;3.50;3.10;;;;;;;29.44;28.38;97137.39;108892;1251;102350;-74
2023/05/22 10:56:35;;;;;;;5.60;2.90;;;;;;;29.43;28.51;97131.94;108575;1251;101134;-72
2023/05/22 10:59:06;;;;;;;4.00;2.90;;;;;;;29.45;28.95;97134.16;108591;1251;99803;-74
2023/05/22 11:01:36;;;;;;;3.50;2.90;;;;;;;29.55;29.08;97135.33;108583;1251;94544;-74
2023/05/22 11:04:05;;;;;;;5.10;3.00;;;;;;;29.64;28.66;97134.81;108690;1251;94418;-74
2023/05/22 11:07:03;;;;;;;3.80;2.80;;;;;;;29.60;27.64;97125.42;108946;1251;102315;-76
2023/05/22 11:09:40;;;;;;;7.00;3.40;;;;;;;29.46;27.45;97121.73;108916;1250;101277;-74
2023/05/22 11:12:24;;;;;;;5.10;3.00;;;;;;;29.39;27.74;97120.59;108787;1251;100157;-75
2023/05/22 11:15:14;;;;;;;11.10;2.80;;;;;;;29.33;28.38;97124.30;108848;1250;94269;-75
2023/05/22 11:17:50;;;;;;;6.30;2.90;;;;;;;29.20;28.44;97121.98;108839;1250;94674;-74
2023/05/22 11:20:21;;;;;;;3.90;2.80;;;;;;;29.16;28.58;97116.45;108923;1251;101381;-75
2023/05/22 11:23:05;;;;;;;5.60;3.00;;;;;;;29.12;28.62;97118.79;108807;1251;101337;-73
2023/05/22 11:25:36;;;;;;;7.20;2.30;;;;;;;29.16;28.52;97118.83;108867;1251;99963;-74
2023/05/22 11:28:06;;;;;;;4.20;2.70;;;;;;;29.29;28.54;97115.59;108795;1253;95265;-75
2023/05/22 11:30:35;;;;;;;5.40;3.00;;;;;;;29.35;27.93;97111.13;108922;1250;94287;-77
2023/05/22 11:33:05;;;;;;;6.20;3.10;;;;;;;29.35;28.41;97111.39;108693;1251;102029;-73
2023/05/22 11:35:34;;;;;;;8.30;3.20;;;;;;;29.35;28.38;97108.90;108696;1251;100429;-73